Patillas, PR (00723)

6:19 PM AST on August 28, 2015 (GMT -0400)
Manejo de Emergencias Maunabo | | Change Station
CLOSE
Current Station
Personal Weather Station
Location: Maunabo, PR
Elevation: 374 ft
Nearby Weather Stations

Elev 374 ft 18.01 °N, 65.90 °W | Updated 48 seconds ago

Mostly Cloudy
Mostly Cloudy
85.0 °F
Feels Like 98 °F
N
7.0
Wind Variable Wind from East
Gusts 14.0 mph

Today
High -- | Low -- °F
--% Chance of Precip.
Yesterday
High -- | Low -- °F
Precip. -- in
6:09 AM 6:41 PM
Waxing Gibbous, 99% visible
Pressure 30.00 in
Visibility 10.0 miles
Clouds Few 3700 ft
Scattered Clouds 4400 ft
Mostly Cloudy 9000 ft
Heat Index 98 °F
Dew Point 79 °F
Humidity 82%
Rainfall Not available.
Snow Depth Not available.
UV 0 out of 12
Pollen Not available.
Air Quality Not available.
Flu Activity Not available.
METAR TJSJ 282156Z 10010KT 10SM FEW037 SCT044 BKN090 29/24 A3000 RMK AO2 SLP157 T02890244
Pressure 30.00 in
Visibility 10.0 miles
Clouds Few 3700 ft
Scattered Clouds 4400 ft
Mostly Cloudy 9000 ft
Heat Index 98 °F
Dew Point 79 °F
Humidity 82%
Rainfall Not available.
Snow Depth Not available.
UV 0 out of 12
Pollen Not available.
Air Quality Not available.
Flu Activity Not available.
METAR TJSJ 282156Z 10010KT 10SM FEW037 SCT044 BKN090 29/24 A3000 RMK AO2 SLP157 T02890244

10-Day Weather Forecast

×

Almanac

Astronomy

Aug. 28, 2015 Rise Set
Actual Time
Civil Twilight
Nautical Twilight
Astronomical Twilight
Moon
Length of Visible Light
Length of Day
Tomorrow will be .
, % of the Moon is Illuminated

Today's Extremes

State Highs State Lows

Community

WunderPhotos

Upload Photos

1,850,515 photos uploaded!

WunderBlogs® & News

Nearby

Air Quality

  Air Quality AQ Index Pollutant
Not available.

Snow Depth

Station Depth Elevation

Earthquake Activity

City Distance Mag. Time & Date
Minimum magnitude displayed is 2.5.

Coastal Water Temperatures

Place Temperature

Stations

Nearby Weather Stations

Station Location Temp. Windchill Dew Point Humidity Wind Precip. Elev Updated Type